createdAt,value
2022-08-20T00:00:01.155Z,92.7
2022-08-20T00:01:02.105Z,92.7
2022-08-20T00:02:00.658Z,92.6
2022-08-20T00:03:00.635Z,92.6
2022-08-20T00:04:01.707Z,92.6
2022-08-20T00:05:00.934Z,92.6
2022-08-20T00:06:01.076Z,92.5
2022-08-20T00:07:01.266Z,92.5
2022-08-20T00:08:00.372Z,92.4
2022-08-20T00:09:00.528Z,92.4
2022-08-20T00:10:00.676Z,92.4
2022-08-20T00:11:01.136Z,92.4
2022-08-20T00:12:00.995Z,92.4
2022-08-20T00:13:01.150Z,92.4
2022-08-20T00:14:00.283Z,92.4
2022-08-20T00:15:00.425Z,92.4
2022-08-20T00:16:00.585Z,92.4
2022-08-20T00:17:00.751Z,92.4
2022-08-20T00:18:00.910Z,92.4
2022-08-20T00:19:01.033Z,92.5
2022-08-20T00:20:01.180Z,92.6
2022-08-20T00:21:00.341Z,92.7
2022-08-20T00:22:00.481Z,92.6
2022-08-20T00:23:00.661Z,92.5
2022-08-20T00:24:00.785Z,92.6
2022-08-20T00:25:00.946Z,92.7
2022-08-20T00:26:01.094Z,92.7
2022-08-20T00:27:01.284Z,92.6
2022-08-20T00:28:00.405Z,92.7
2022-08-20T00:29:00.539Z,92.5
2022-08-20T00:30:00.686Z,92.4
2022-08-20T00:31:00.871Z,92.3
2022-08-20T00:32:01.007Z,92.2
2022-08-20T00:33:01.178Z,92.2
2022-08-20T00:34:00.310Z,92.3
2022-08-20T00:35:00.449Z,92.4
2022-08-20T00:36:00.612Z,92.5
2022-08-20T00:37:00.765Z,92.5
2022-08-20T00:38:01.076Z,92.6
2022-08-20T00:39:01.072Z,92.8
2022-08-20T00:40:01.278Z,92.8
2022-08-20T00:41:00.366Z,92.9
2022-08-20T00:42:00.512Z,93
2022-08-20T00:43:00.684Z,93
2022-08-20T00:44:01.589Z,92.9
2022-08-20T00:45:00.976Z,92.9
2022-08-20T00:46:01.126Z,92.9
2022-08-20T00:47:00.265Z,92.8
2022-08-20T00:48:00.424Z,92.9
2022-08-20T00:49:01.770Z,93
2022-08-20T00:50:00.729Z,93
2022-08-20T00:51:00.880Z,93
2022-08-20T00:52:01.021Z,93
2022-08-20T00:53:01.182Z,93.1
2022-08-20T00:54:00.349Z,93.2
2022-08-20T00:55:00.481Z,93.2
2022-08-20T00:56:00.629Z,93.1
2022-08-20T00:57:00.784Z,93.1
2022-08-20T00:58:01.958Z,93.1
2022-08-20T00:59:01.113Z,93.2
2022-08-20T01:00:01.237Z,93.2
2022-08-20T01:01:00.388Z,93.2
2022-08-20T01:02:00.592Z,93.2
2022-08-20T01:03:00.705Z,93.3
2022-08-20T01:04:00.858Z,93.3
2022-08-20T01:05:00.991Z,93.3
2022-08-20T01:06:01.148Z,93.2
2022-08-20T01:07:00.294Z,93.3
2022-08-20T01:08:00.444Z,93.2
2022-08-20T01:09:00.614Z,93.1
2022-08-20T01:10:00.769Z,93.2
2022-08-20T01:11:00.894Z,93.2
2022-08-20T01:12:01.031Z,93.2
2022-08-20T01:13:01.185Z,93.2
2022-08-20T01:14:00.329Z,93.2
2022-08-20T01:15:00.497Z,93.1
2022-08-20T01:16:00.649Z,93.2
2022-08-20T01:17:00.786Z,93.2
2022-08-20T01:18:00.944Z,93.2
2022-08-20T01:19:01.078Z,93.2
2022-08-20T01:20:01.229Z,93.2
2022-08-20T01:21:00.401Z,93.2
2022-08-20T01:22:00.526Z,93.2
2022-08-20T01:23:00.662Z,93.1
2022-08-20T01:24:00.816Z,92.9
2022-08-20T01:25:00.970Z,93
2022-08-20T01:26:01.123Z,93.1
2022-08-20T01:27:00.270Z,93.1
2022-08-20T01:28:00.712Z,93.2
2022-08-20T01:29:00.549Z,93.4
2022-08-20T01:30:00.702Z,93.5
2022-08-20T01:31:00.882Z,93.4
2022-08-20T01:32:01.017Z,93.2
2022-08-20T01:33:01.158Z,93.2
2022-08-20T01:34:00.299Z,93.3
2022-08-20T01:35:00.451Z,93.4
2022-08-20T01:36:00.624Z,93.6
2022-08-20T01:37:00.764Z,93.7
2022-08-20T01:38:00.902Z,93.7
2022-08-20T01:39:01.045Z,93.6
2022-08-20T01:40:01.237Z,93.6
2022-08-20T01:41:00.345Z,93.6
2022-08-20T01:42:00.535Z,93.7
2022-08-20T01:43:00.662Z,93.7
2022-08-20T01:44:00.817Z,93.7
2022-08-20T01:45:01.704Z,93.6
2022-08-20T01:46:01.116Z,93.7
2022-08-20T01:47:00.294Z,93.6
2022-08-20T01:48:00.456Z,93.6
2022-08-20T01:49:00.585Z,93.4
2022-08-20T01:50:00.745Z,93.5
2022-08-20T01:51:00.877Z,93.5
2022-08-20T01:52:01.049Z,93.5
2022-08-20T01:53:01.206Z,93.5
2022-08-20T01:54:00.333Z,93.5
2022-08-20T01:55:00.482Z,93.6
2022-08-20T01:56:00.633Z,93.6
2022-08-20T01:57:00.775Z,93.7
2022-08-20T01:58:00.939Z,93.7
2022-08-20T01:59:01.067Z,93.8
2022-08-20T02:00:01.221Z,93.9
2022-08-20T02:01:00.383Z,94
2022-08-20T02:02:00.630Z,94.1
2022-08-20T02:03:00.697Z,94.1
2022-08-20T02:04:00.858Z,94.2
2022-08-20T02:05:00.995Z,94.3
2022-08-20T02:06:01.131Z,94.3
2022-08-20T02:07:00.292Z,94.4
2022-08-20T02:08:00.444Z,94.5
2022-08-20T02:09:00.611Z,94.5
2022-08-20T02:10:00.747Z,94.6
2022-08-20T02:11:00.895Z,94.6
2022-08-20T02:12:01.040Z,94.6
2022-08-20T02:13:01.203Z,94.7
2022-08-20T02:14:00.374Z,94.8
2022-08-20T02:15:00.503Z,94.8
2022-08-20T02:16:00.658Z,94.8
2022-08-20T02:17:00.842Z,95
2022-08-20T02:18:00.952Z,95
2022-08-20T02:19:01.111Z,95
2022-08-20T02:20:01.247Z,95
2022-08-20T02:21:00.401Z,95
2022-08-20T02:22:00.657Z,95.1
2022-08-20T02:23:00.700Z,95.2
2022-08-20T02:24:00.895Z,95.2
2022-08-20T02:25:01.009Z,95.2
2022-08-20T02:26:01.154Z,95.2
2022-08-20T02:27:00.299Z,95.3
2022-08-20T02:28:00.456Z,95.3
2022-08-20T02:29:01.192Z,95.3
2022-08-20T02:30:00.817Z,95.3
2022-08-20T02:31:00.946Z,95.4
2022-08-20T02:32:32.250Z,95.4
2022-08-20T02:33:01.246Z,95.5
2022-08-20T02:34:18.518Z,95.5
2022-08-20T02:35:00.565Z,95.5
2022-08-20T02:36:00.713Z,95.5
2022-08-20T02:37:00.885Z,95.5
2022-08-20T02:38:00.998Z,95.6
2022-08-20T02:39:01.143Z,95.6
2022-08-20T02:40:00.386Z,95.6
2022-08-20T02:41:00.432Z,95.5
2022-08-20T02:42:00.606Z,95.5
2022-08-20T02:43:00.747Z,95.4
2022-08-20T02:44:00.886Z,95.4
2022-08-20T02:45:01.052Z,95.3
2022-08-20T02:46:01.194Z,95.3
2022-08-20T02:47:00.356Z,95.2
2022-08-20T02:48:00.517Z,95.1
2022-08-20T02:49:00.644Z,95.1
2022-08-20T02:50:00.795Z,95
2022-08-20T02:51:00.950Z,94.9
2022-08-20T02:52:01.094Z,94.8
2022-08-20T02:53:01.281Z,94.7
2022-08-20T02:54:00.400Z,94.6
2022-08-20T02:55:00.549Z,94.6
2022-08-20T02:56:00.704Z,94.5
2022-08-20T02:57:00.852Z,94.3
2022-08-20T02:58:01.026Z,94.1
2022-08-20T02:59:01.153Z,93.6
2022-08-20T03:00:00.305Z,93.3
2022-08-20T03:01:00.485Z,92.8
2022-08-20T03:02:01.134Z,92.8
2022-08-20T03:03:00.776Z,92.2
2022-08-20T03:04:00.897Z,92.2
2022-08-20T03:05:01.065Z,92
2022-08-20T03:06:01.214Z,92
2022-08-20T03:07:00.362Z,91.6
2022-08-20T03:08:00.541Z,92.4
2022-08-20T03:09:00.685Z,92.8
2022-08-20T03:10:00.820Z,92.7
2022-08-20T03:11:00.960Z,92.7
2022-08-20T03:12:01.123Z,92.2
2022-08-20T03:13:00.278Z,92.1
2022-08-20T03:14:00.421Z,92.5
2022-08-20T03:15:00.574Z,92.6
2022-08-20T03:16:00.747Z,92.2
2022-08-20T03:17:00.896Z,91.7
2022-08-20T03:18:01.057Z,91.3
2022-08-20T03:19:01.185Z,91.9
2022-08-20T03:20:00.342Z,92.5
2022-08-20T03:21:00.502Z,92.8
2022-08-20T03:22:00.646Z,92.8
2022-08-20T03:23:00.814Z,92.7
2022-08-20T03:24:00.946Z,92.2
2022-08-20T03:25:01.091Z,92.5
2022-08-20T03:26:01.242Z,92.4
2022-08-20T03:27:00.391Z,92.6
2022-08-20T03:28:00.735Z,92.8
2022-08-20T03:29:00.702Z,93
2022-08-20T03:30:00.861Z,92.6
2022-08-20T03:31:01.006Z,92.5
2022-08-20T03:32:03.914Z,92.7
2022-08-20T03:33:00.326Z,92.2
2022-08-20T03:34:00.504Z,91.8
2022-08-20T03:35:00.612Z,92
2022-08-20T03:36:00.761Z,91.8
2022-08-20T03:37:00.925Z,92.2
2022-08-20T03:38:01.058Z,92.6
2022-08-20T03:39:01.227Z,92.5
2022-08-20T03:40:00.512Z,92.8
2022-08-20T03:41:00.509Z,92.9
2022-08-20T03:42:00.651Z,93
2022-08-20T03:43:00.870Z,93.1
2022-08-20T03:44:00.957Z,93.2
2022-08-20T03:45:01.111Z,93.2
2022-08-20T03:46:01.238Z,93.3
2022-08-20T03:47:00.391Z,93.3
2022-08-20T03:48:00.545Z,93.3
2022-08-20T03:49:00.916Z,93.4
2022-08-20T03:50:00.849Z,93.4
2022-08-20T03:51:00.993Z,93.4
2022-08-20T03:52:01.152Z,93.3
2022-08-20T03:53:00.298Z,93.2
2022-08-20T03:54:00.483Z,93.2
2022-08-20T03:55:00.598Z,93.3
2022-08-20T03:56:02.466Z,93.4
2022-08-20T03:57:00.880Z,93.5
2022-08-20T03:58:01.047Z,93.6
2022-08-20T03:59:01.206Z,93.6
2022-08-20T04:00:00.351Z,93.6
2022-08-20T04:01:00.538Z,93.5
2022-08-20T04:02:00.670Z,93.4
2022-08-20T04:03:00.894Z,93.5
2022-08-20T04:04:00.991Z,93.5
2022-08-20T04:05:01.098Z,93.6
2022-08-20T04:06:01.245Z,93.5
2022-08-20T04:07:00.399Z,93.5
2022-08-20T04:08:03.150Z,93.4
2022-08-20T04:09:00.719Z,93.6
2022-08-20T04:10:00.852Z,93.4
2022-08-20T04:11:01.001Z,93.2
2022-08-20T04:12:01.151Z,93.2
2022-08-20T04:13:00.285Z,93.4
2022-08-20T04:14:00.451Z,93.4
2022-08-20T04:15:00.597Z,93.3
2022-08-20T04:16:00.744Z,92.3
2022-08-20T04:17:00.892Z,92.2
2022-08-20T04:18:01.080Z,91.8
2022-08-20T04:19:01.828Z,91.3
2022-08-20T04:20:00.356Z,91.1
2022-08-20T04:21:00.501Z,91.1
2022-08-20T04:22:00.676Z,91
2022-08-20T04:23:00.803Z,91.4
2022-08-20T04:24:00.966Z,91.5
2022-08-20T04:25:01.104Z,91.8
2022-08-20T04:26:01.268Z,92.2
2022-08-20T04:27:00.402Z,92.6
2022-08-20T04:28:00.549Z,92.8
2022-08-20T04:29:00.708Z,93.1
2022-08-20T04:30:00.847Z,93.4
2022-08-20T04:31:01.026Z,93.4
2022-08-20T04:32:05.921Z,93.7
2022-08-20T04:33:00.310Z,93.8
2022-08-20T04:34:00.459Z,93.9
2022-08-20T04:35:00.598Z,94
2022-08-20T04:36:00.824Z,94
2022-08-20T04:37:00.908Z,94
2022-08-20T04:38:01.052Z,94.2
2022-08-20T04:39:01.212Z,94.1
2022-08-20T04:40:00.491Z,94
2022-08-20T04:41:00.529Z,94.1
2022-08-20T04:42:00.656Z,94.1
2022-08-20T04:43:00.803Z,94.2
2022-08-20T04:44:00.976Z,94.1
2022-08-20T04:45:01.115Z,94.1
2022-08-20T04:46:00.261Z,94.1
2022-08-20T04:47:00.421Z,94.2
2022-08-20T04:48:00.563Z,94.2
2022-08-20T04:49:00.733Z,94.2
2022-08-20T04:50:00.852Z,94.2
2022-08-20T04:51:01.004Z,94.2
2022-08-20T04:52:01.155Z,94.2
2022-08-20T04:53:00.307Z,94.4
2022-08-20T04:54:00.471Z,94.4
2022-08-20T04:55:00.650Z,94.3
2022-08-20T04:56:00.750Z,94.3
2022-08-20T04:57:00.885Z,94.2
2022-08-20T04:58:01.043Z,94.2
2022-08-20T04:59:01.205Z,94.2
2022-08-20T05:00:00.370Z,94.2
2022-08-20T05:01:01.395Z,94.2
2022-08-20T05:02:00.656Z,94.2
2022-08-20T05:03:00.814Z,94.3
2022-08-20T05:04:00.963Z,94.2
2022-08-20T05:05:01.145Z,94.2
2022-08-20T05:06:00.273Z,94.2
2022-08-20T05:07:00.428Z,94.3
2022-08-20T05:08:00.582Z,94.3
2022-08-20T05:09:00.736Z,94.3
2022-08-20T05:10:00.923Z,94.3
2022-08-20T05:11:25.791Z,94.2
2022-08-20T05:12:01.190Z,94.2
2022-08-20T05:13:00.334Z,94.3
2022-08-20T05:14:00.490Z,94.2
2022-08-20T05:15:00.674Z,94.1
2022-08-20T05:16:00.792Z,94
2022-08-20T05:17:00.944Z,94
2022-08-20T05:18:01.100Z,94.1
2022-08-20T05:19:01.253Z,94.3
2022-08-20T05:20:00.414Z,94.3
2022-08-20T05:21:00.560Z,94.3
2022-08-20T05:22:00.715Z,94.3
2022-08-20T05:23:00.873Z,94.3
2022-08-20T05:24:01.012Z,94.3
2022-08-20T05:25:01.173Z,94.3
2022-08-20T05:26:00.307Z,94.3
2022-08-20T05:27:00.488Z,94.4
2022-08-20T05:28:00.636Z,94.4
2022-08-20T05:29:00.796Z,94.5
2022-08-20T05:30:00.956Z,94.6
2022-08-20T05:31:01.101Z,94.6
2022-08-20T05:33:00.393Z,94.6
2022-08-20T05:34:00.512Z,94.7
2022-08-20T05:35:00.664Z,94.7
2022-08-20T05:36:00.816Z,94.8
2022-08-20T05:37:00.961Z,94.8
2022-08-20T05:38:01.135Z,94.8
2022-08-20T05:39:00.268Z,94.9
2022-08-20T05:40:00.473Z,94.9
2022-08-20T05:41:00.588Z,94.9
2022-08-20T05:42:00.718Z,94.9
2022-08-20T05:43:00.865Z,94.9
2022-08-20T05:44:01.015Z,95
2022-08-20T05:45:01.168Z,95
2022-08-20T05:46:00.340Z,95.1
2022-08-20T05:47:00.467Z,95.1
2022-08-20T05:48:00.613Z,95.1
2022-08-20T05:49:00.757Z,95.1
2022-08-20T05:50:00.915Z,95.1
2022-08-20T05:51:01.092Z,95.1
2022-08-20T05:52:01.227Z,95.1
2022-08-20T05:53:00.374Z,95.1
2022-08-20T05:54:00.540Z,95.1
2022-08-20T05:55:00.679Z,95.1
2022-08-20T05:56:00.831Z,95.1
2022-08-20T05:57:00.977Z,95.2
2022-08-20T05:58:01.130Z,95.2
2022-08-20T05:59:00.289Z,95.2
2022-08-20T06:00:00.418Z,95.2
2022-08-20T06:01:00.646Z,95.2
2022-08-20T06:02:00.728Z,95.2
2022-08-20T06:03:00.891Z,95.2
2022-08-20T06:04:01.052Z,95.2
2022-08-20T06:05:01.176Z,95.2
2022-08-20T06:06:00.323Z,95.2
2022-08-20T06:07:00.476Z,95.3
2022-08-20T06:08:07.814Z,95.3
2022-08-20T06:09:00.796Z,95.3
2022-08-20T06:10:00.939Z,95.3
2022-08-20T06:11:01.086Z,95.3
2022-08-20T06:12:01.229Z,95.3
2022-08-20T06:13:00.378Z,95.4
2022-08-20T06:14:00.531Z,95.4
2022-08-20T06:15:00.695Z,95.3
2022-08-20T06:16:00.840Z,95.3
2022-08-20T06:17:00.984Z,95.3
2022-08-20T06:18:01.372Z,95.3
2022-08-20T06:19:02.706Z,95.3
2022-08-20T06:20:00.472Z,95.3
2022-08-20T06:21:00.602Z,95.3
2022-08-20T06:22:00.735Z,95.3
2022-08-20T06:23:00.914Z,95.3
2022-08-20T06:24:02.091Z,95.3
2022-08-20T06:25:01.215Z,95.3
2022-08-20T06:26:00.337Z,95.2
2022-08-20T06:27:00.495Z,95.3
2022-08-20T06:28:00.637Z,95.2
2022-08-20T06:29:00.788Z,95.2
2022-08-20T06:30:00.954Z,95.2
2022-08-20T06:31:01.092Z,95.1
2022-08-20T06:32:01.244Z,95.1
2022-08-20T06:33:00.401Z,95
2022-08-20T06:34:00.564Z,95
2022-08-20T06:35:00.942Z,95
2022-08-20T06:36:00.886Z,95
2022-08-20T06:37:01.027Z,95
2022-08-20T06:38:01.175Z,95
2022-08-20T06:39:00.333Z,95
2022-08-20T06:40:00.563Z,95
2022-08-20T06:41:00.638Z,95
2022-08-20T06:42:00.813Z,95
2022-08-20T06:43:00.954Z,95
2022-08-20T06:44:01.104Z,95
2022-08-20T06:45:00.276Z,94.9
2022-08-20T06:46:00.409Z,94.9
2022-08-20T06:47:00.549Z,94.9
2022-08-20T06:48:00.703Z,94.8
2022-08-20T06:49:00.853Z,94.8
2022-08-20T06:50:01.015Z,94.8
2022-08-20T06:51:01.170Z,94.7
2022-08-20T06:52:00.310Z,94.7
2022-08-20T06:53:00.483Z,94.6
2022-08-20T06:54:00.610Z,94.5
2022-08-20T06:55:00.752Z,94.4
2022-08-20T06:56:00.924Z,94.5
2022-08-20T06:57:01.079Z,94.3
2022-08-20T06:58:01.215Z,94.3
2022-08-20T06:59:00.354Z,94.3
2022-08-20T07:00:00.506Z,94.2
2022-08-20T07:01:04.901Z,94.2
2022-08-20T07:02:00.840Z,94.1
2022-08-20T07:03:00.964Z,94.1
2022-08-20T07:04:01.128Z,94.1
2022-08-20T07:05:00.285Z,94.1
2022-08-20T07:06:00.433Z,94
2022-08-20T07:07:00.609Z,94
2022-08-20T07:08:00.734Z,94
2022-08-20T07:09:00.887Z,94
2022-08-20T07:10:01.050Z,94
2022-08-20T07:11:01.195Z,94
2022-08-20T07:12:00.375Z,94.1
2022-08-20T07:13:00.490Z,94
2022-08-20T07:14:00.638Z,94
2022-08-20T07:15:00.790Z,94
2022-08-20T07:16:00.948Z,94
2022-08-20T07:17:01.121Z,94
2022-08-20T07:19:00.375Z,94
2022-08-20T07:20:00.519Z,94.1
2022-08-20T07:21:00.683Z,94.1
2022-08-20T07:22:00.846Z,94.1
2022-08-20T07:23:00.982Z,94.1
2022-08-20T07:24:01.151Z,94
2022-08-20T07:25:00.285Z,94.1
2022-08-20T07:26:00.432Z,94.1
2022-08-20T07:27:00.585Z,94.2
2022-08-20T07:28:00.739Z,94.2
2022-08-20T07:29:00.917Z,94.2
2022-08-20T07:30:01.060Z,94.2
2022-08-20T07:31:12.237Z,94.2
2022-08-20T07:32:00.340Z,94.1
2022-08-20T07:33:00.499Z,94.1
2022-08-20T07:34:00.645Z,94.2
2022-08-20T07:35:00.791Z,94.1
2022-08-20T07:36:00.955Z,94.1
2022-08-20T07:37:01.114Z,94.1
2022-08-20T07:38:00.267Z,94
2022-08-20T07:39:00.420Z,94.1
2022-08-20T07:40:00.686Z,94
2022-08-20T07:41:00.719Z,94
2022-08-20T07:42:00.871Z,94
2022-08-20T07:43:01.032Z,93.9
2022-08-20T07:44:01.181Z,93.9
2022-08-20T07:45:00.340Z,93.8
2022-08-20T07:46:00.491Z,93.8
2022-08-20T07:47:00.636Z,93.7
2022-08-20T07:48:00.795Z,93.7
2022-08-20T07:49:00.927Z,93.7
2022-08-20T07:50:01.078Z,93.8
2022-08-20T07:51:01.232Z,93.8
2022-08-20T07:52:00.373Z,93.8
2022-08-20T07:53:00.547Z,93.8
2022-08-20T07:54:00.697Z,93.8
2022-08-20T07:55:00.833Z,93.8
2022-08-20T07:56:00.980Z,93.8
2022-08-20T07:57:01.126Z,93.9
2022-08-20T07:58:00.281Z,93.9
2022-08-20T07:59:00.449Z,93.8
2022-08-20T08:00:00.587Z,93.8
2022-08-20T08:01:00.903Z,93.8
2022-08-20T08:02:00.872Z,93.8
2022-08-20T08:03:01.033Z,93.7
2022-08-20T08:04:01.218Z,93.8
2022-08-20T08:05:00.340Z,93.9
2022-08-20T08:06:00.486Z,93.8
2022-08-20T08:07:00.638Z,93.8
2022-08-20T08:08:02.857Z,93.6
2022-08-20T08:09:00.949Z,93.6
2022-08-20T08:10:01.088Z,93.6
2022-08-20T08:11:01.268Z,93.6
2022-08-20T08:12:00.387Z,93.6
2022-08-20T08:13:00.545Z,93.6
2022-08-20T08:14:00.696Z,93.6
2022-08-20T08:15:00.833Z,93.6
2022-08-20T08:16:01.022Z,93.5
2022-08-20T08:17:01.139Z,93.5
2022-08-20T08:18:00.296Z,93.5
2022-08-20T08:19:00.440Z,93.5
2022-08-20T08:20:00.597Z,93.5
2022-08-20T08:21:00.762Z,93.6
2022-08-20T08:22:00.894Z,93.6
2022-08-20T08:23:01.053Z,93.6
2022-08-20T08:24:01.194Z,93.6
2022-08-20T08:25:00.337Z,93.6
2022-08-20T08:26:00.524Z,93.5
2022-08-20T08:27:00.656Z,93.5
2022-08-20T08:28:00.798Z,93.5
2022-08-20T08:29:00.952Z,93.5
2022-08-20T08:30:01.118Z,93.6
2022-08-20T08:31:00.274Z,93.5
2022-08-20T08:32:00.414Z,93.5
2022-08-20T08:33:00.560Z,93.6
2022-08-20T08:34:00.715Z,93.6
2022-08-20T08:35:00.854Z,93.6
2022-08-20T08:36:00.994Z,93.6
2022-08-20T08:37:01.171Z,93.7
2022-08-20T08:38:00.293Z,93.8
2022-08-20T08:39:00.447Z,93.8
2022-08-20T08:40:00.637Z,93.7
2022-08-20T08:41:00.740Z,93.8
2022-08-20T08:42:00.901Z,93.9
2022-08-20T08:43:01.046Z,94
2022-08-20T08:44:01.193Z,94
2022-08-20T08:45:00.329Z,94.1
2022-08-20T08:46:00.483Z,94.1
2022-08-20T08:47:00.633Z,94.1
2022-08-20T08:48:00.808Z,94.1
2022-08-20T08:49:00.932Z,94.2
2022-08-20T08:50:01.078Z,94.2
2022-08-20T08:51:01.226Z,94.2
2022-08-20T08:52:00.372Z,94.2
2022-08-20T08:53:00.555Z,94.3
2022-08-20T08:54:05.984Z,94.3
2022-08-20T08:55:00.827Z,94.3
2022-08-20T08:56:00.990Z,94.3
2022-08-20T08:57:01.145Z,94.4
2022-08-20T08:58:00.307Z,94.4
2022-08-20T08:59:00.442Z,94.4
2022-08-20T09:00:04.603Z,94.4
2022-08-20T09:01:01.985Z,94.5
2022-08-20T09:02:00.971Z,94.6
2022-08-20T09:03:01.354Z,94.6
2022-08-20T09:04:01.193Z,94.6
2022-08-20T09:05:00.347Z,94.5
2022-08-20T09:06:00.493Z,94.5
2022-08-20T09:07:00.659Z,94.5
2022-08-20T09:08:00.824Z,94.5
2022-08-20T09:09:00.950Z,94.5
2022-08-20T09:10:01.119Z,94.5
2022-08-20T09:11:00.274Z,94.6
2022-08-20T09:12:00.427Z,94.6
2022-08-20T09:13:00.636Z,94.6
2022-08-20T09:14:00.738Z,94.7
2022-08-20T09:15:00.882Z,94.7
2022-08-20T09:16:01.033Z,94.7
2022-08-20T09:17:01.180Z,94.6
2022-08-20T09:18:00.362Z,94.6
2022-08-20T09:19:00.489Z,94.6
2022-08-20T09:20:00.644Z,94.7
2022-08-20T09:21:00.805Z,94.7
2022-08-20T09:22:00.949Z,94.7
2022-08-20T09:23:01.120Z,94.7
2022-08-20T09:24:01.243Z,94.7
2022-08-20T09:25:00.393Z,94.7
2022-08-20T09:26:00.551Z,94.6
2022-08-20T09:27:00.700Z,94.6
2022-08-20T09:28:00.866Z,94.6
2022-08-20T09:29:00.990Z,94.6
2022-08-20T09:30:01.156Z,94.6
2022-08-20T09:31:00.306Z,94.6
2022-08-20T09:32:00.458Z,94.6
2022-08-20T09:33:00.633Z,94.6
2022-08-20T09:34:00.773Z,94.6
2022-08-20T09:35:00.926Z,94.6
2022-08-20T09:36:01.077Z,94.6
2022-08-20T09:37:01.232Z,94.6
2022-08-20T09:38:00.384Z,94.6
2022-08-20T09:39:00.576Z,94.5
2022-08-20T09:40:00.696Z,94.5
2022-08-20T09:41:00.843Z,94.4
2022-08-20T09:42:00.981Z,94.3
2022-08-20T09:43:01.176Z,94.3
2022-08-20T09:44:00.315Z,94.3
2022-08-20T09:45:00.449Z,94.3
2022-08-20T09:46:00.588Z,94.3
2022-08-20T09:47:00.737Z,94.3
2022-08-20T09:48:00.886Z,94.2
2022-08-20T09:49:01.056Z,94.2
2022-08-20T09:50:01.238Z,94.1
2022-08-20T09:51:00.354Z,94.1
2022-08-20T09:52:00.508Z,94.1
2022-08-20T09:53:00.676Z,94.2
2022-08-20T09:54:00.821Z,94.1
2022-08-20T09:55:01.016Z,94.1
2022-08-20T09:56:01.176Z,94.1
2022-08-20T09:57:00.280Z,94
2022-08-20T09:58:00.443Z,93.9
2022-08-20T09:59:02.885Z,93.9
2022-08-20T10:00:00.733Z,93.8
2022-08-20T10:01:00.891Z,93.8
2022-08-20T10:02:01.163Z,93.7
2022-08-20T10:03:01.177Z,93.7
2022-08-20T10:04:00.333Z,93.7
2022-08-20T10:05:00.506Z,93.7
2022-08-20T10:06:00.622Z,93.7
2022-08-20T10:07:00.773Z,93.7
2022-08-20T10:08:00.920Z,93.7
2022-08-20T10:09:01.071Z,93.7
2022-08-20T10:10:01.293Z,93.8
2022-08-20T10:11:00.373Z,93.8
2022-08-20T10:12:00.522Z,93.8
2022-08-20T10:13:00.677Z,93.8
2022-08-20T10:14:00.827Z,93.8
2022-08-20T10:15:00.990Z,93.8
2022-08-20T10:16:01.112Z,93.8
2022-08-20T10:17:00.293Z,93.8
2022-08-20T10:18:00.423Z,93.8
2022-08-20T10:19:00.619Z,93.8
2022-08-20T10:20:00.733Z,93.8
2022-08-20T10:21:00.904Z,93.8
2022-08-20T10:22:01.023Z,93.8
2022-08-20T10:23:01.179Z,93.7
2022-08-20T10:24:00.324Z,93.8
2022-08-20T10:25:00.469Z,93.8
2022-08-20T10:26:00.655Z,93.7
2022-08-20T10:27:00.769Z,93.6
2022-08-20T10:28:00.922Z,93.4
2022-08-20T10:29:01.086Z,93.4
2022-08-20T10:30:01.226Z,93.4
2022-08-20T10:31:00.387Z,93.3
2022-08-20T10:32:00.564Z,93.3
2022-08-20T10:33:00.687Z,93.2
2022-08-20T10:34:00.831Z,93.1
2022-08-20T10:35:00.985Z,93.1
2022-08-20T10:36:01.132Z,93.1
2022-08-20T10:37:00.302Z,93.1
2022-08-20T10:38:00.438Z,93.1
2022-08-20T10:39:00.589Z,93.1
2022-08-20T10:40:00.789Z,93.1
2022-08-20T10:41:00.890Z,93.1
2022-08-20T10:42:01.064Z,93.1
2022-08-20T10:43:01.198Z,93
2022-08-20T10:44:00.398Z,93
2022-08-20T10:45:00.490Z,93
2022-08-20T10:46:00.648Z,93
2022-08-20T10:47:00.804Z,93
2022-08-20T10:48:00.948Z,93
2022-08-20T10:49:01.097Z,93
2022-08-20T10:50:01.245Z,93.1
2022-08-20T10:51:00.387Z,93.1
2022-08-20T10:52:00.537Z,93.1
2022-08-20T10:53:00.710Z,93.1
2022-08-20T10:54:00.888Z,93.1
2022-08-20T10:55:01.035Z,93.2
2022-08-20T10:56:01.165Z,93.2
2022-08-20T10:57:00.329Z,93.3
2022-08-20T10:58:00.475Z,93.3
2022-08-20T10:59:00.652Z,93.3
2022-08-20T11:00:00.788Z,93.2
2022-08-20T11:01:00.935Z,93.2
2022-08-20T11:02:01.165Z,93.2
2022-08-20T11:03:01.227Z,93.1
2022-08-20T11:04:00.381Z,93.1
2022-08-20T11:05:00.561Z,93
2022-08-20T11:06:00.699Z,93
2022-08-20T11:07:00.843Z,93
2022-08-20T11:08:01.129Z,93
2022-08-20T11:09:01.138Z,92.9
2022-08-20T11:10:00.298Z,92.9
2022-08-20T11:11:00.446Z,92.9
2022-08-20T11:12:00.590Z,92.8
2022-08-20T11:13:00.744Z,92.8
2022-08-20T11:14:00.888Z,92.8
2022-08-20T11:15:01.079Z,92.8
2022-08-20T11:16:01.205Z,92.8
2022-08-20T11:17:00.347Z,92.8
2022-08-20T11:18:00.500Z,92.8
2022-08-20T11:19:00.650Z,92.8
2022-08-20T11:20:00.809Z,92.7
2022-08-20T11:21:00.944Z,92.6
2022-08-20T11:22:01.093Z,92.6
2022-08-20T11:23:01.242Z,92.5
2022-08-20T11:24:03.008Z,92.5
2022-08-20T11:25:00.525Z,92.6
2022-08-20T11:26:00.682Z,92.5
2022-08-20T11:27:00.824Z,92.5
2022-08-20T11:28:00.977Z,92.5
2022-08-20T11:29:01.141Z,92.4
2022-08-20T11:30:00.280Z,92.4
2022-08-20T11:31:00.439Z,92.4
2022-08-20T11:32:00.589Z,92.4
2022-08-20T11:33:00.729Z,92.5
2022-08-20T11:34:00.931Z,92.5
2022-08-20T11:35:09.829Z,92.5
2022-08-20T11:36:01.199Z,92.6
2022-08-20T11:37:00.348Z,92.6
2022-08-20T11:38:00.491Z,92.7
2022-08-20T11:39:00.674Z,92.7
2022-08-20T11:40:00.857Z,92.6
2022-08-20T11:41:00.975Z,92.6
2022-08-20T11:42:01.137Z,92.6
2022-08-20T11:43:15.938Z,92.6
2022-08-20T11:44:21.260Z,92.7
2022-08-20T11:45:00.611Z,92.7
2022-08-20T11:46:00.749Z,92.8
2022-08-20T11:47:00.883Z,92.7
2022-08-20T11:48:01.056Z,92.6
2022-08-20T11:49:01.180Z,92.5
2022-08-20T11:50:00.330Z,92.5
2022-08-20T11:51:00.477Z,92.5
2022-08-20T11:52:00.630Z,92.5
2022-08-20T11:53:01.645Z,92.4
2022-08-20T11:54:00.924Z,92.4
2022-08-20T11:55:01.076Z,92.4
2022-08-20T11:56:01.227Z,92.4
2022-08-20T11:57:00.387Z,92.4
2022-08-20T11:58:01.141Z,92.3
2022-08-20T11:59:00.700Z,92.3
2022-08-20T12:00:00.844Z,92.2
2022-08-20T12:01:00.990Z,92.2
2022-08-20T12:02:03.074Z,92.2
2022-08-20T12:03:00.608Z,92.2
2022-08-20T12:04:00.441Z,92.3
2022-08-20T12:05:00.602Z,92.3
2022-08-20T12:06:00.748Z,92.3
2022-08-20T12:07:00.898Z,92.3
2022-08-20T12:08:01.076Z,92.3
2022-08-20T12:09:01.239Z,92.2
2022-08-20T12:10:00.352Z,92.2
2022-08-20T12:11:00.516Z,92.3
2022-08-20T12:12:00.648Z,92.3
2022-08-20T12:13:01.706Z,92.4
2022-08-20T12:14:00.962Z,92.3
2022-08-20T12:15:01.135Z,92.3
2022-08-20T12:16:01.253Z,92.3
2022-08-20T12:17:00.402Z,92.2
2022-08-20T12:18:00.554Z,92.1
2022-08-20T12:19:00.696Z,92.1
2022-08-20T12:20:00.865Z,92
2022-08-20T12:21:00.995Z,92
2022-08-20T12:22:01.159Z,92
2022-08-20T12:23:00.309Z,92
2022-08-20T12:24:00.456Z,92
2022-08-20T12:25:00.623Z,92
2022-08-20T12:26:00.756Z,92
2022-08-20T12:27:00.919Z,91.9
2022-08-20T12:28:01.057Z,91.9
2022-08-20T12:29:01.219Z,91.8
2022-08-20T12:30:00.379Z,91.8
2022-08-20T12:31:00.501Z,91.8
2022-08-20T12:32:00.655Z,91.8
2022-08-20T12:33:00.839Z,91.8
2022-08-20T12:34:00.946Z,91.9
2022-08-20T12:35:01.102Z,91.9
2022-08-20T12:36:01.246Z,91.9
2022-08-20T12:37:00.385Z,91.9
2022-08-20T12:38:00.561Z,91.9
2022-08-20T12:39:00.682Z,91.8
2022-08-20T12:40:00.894Z,91.8
2022-08-20T12:41:00.985Z,91.8
2022-08-20T12:42:01.141Z,91.8
2022-08-20T12:43:00.326Z,91.8
2022-08-20T12:44:00.462Z,91.7
2022-08-20T12:45:00.608Z,91.8
2022-08-20T12:46:00.753Z,91.8
2022-08-20T12:47:00.903Z,91.8
2022-08-20T12:48:01.085Z,91.9
2022-08-20T12:49:01.207Z,91.9
2022-08-20T12:50:00.354Z,91.8
2022-08-20T12:51:00.501Z,91.9
2022-08-20T12:52:00.653Z,91.9
2022-08-20T12:53:00.854Z,91.9
2022-08-20T12:54:00.945Z,91.8
2022-08-20T12:55:01.091Z,91.8
2022-08-20T12:56:01.251Z,91.8
2022-08-20T12:57:00.403Z,91.8
2022-08-20T12:58:00.574Z,91.6
2022-08-20T12:59:00.739Z,91.5
2022-08-20T13:00:00.849Z,91.6
2022-08-20T13:01:01.068Z,91.5
2022-08-20T13:02:09.264Z,91.4
2022-08-20T13:03:00.306Z,91.4
2022-08-20T13:04:00.489Z,91.4
2022-08-20T13:05:04.923Z,91.4
2022-08-20T13:06:00.775Z,91.3
2022-08-20T13:07:00.924Z,91.2
2022-08-20T13:08:01.076Z,91.1
2022-08-20T13:09:01.215Z,91.2
2022-08-20T13:10:00.398Z,91.2
2022-08-20T13:11:00.521Z,91.4
2022-08-20T13:12:00.677Z,91.3
2022-08-20T13:13:00.816Z,91.1
2022-08-20T13:14:00.994Z,91
2022-08-20T13:15:01.151Z,90.9
2022-08-20T13:16:00.266Z,90.8
2022-08-20T13:17:00.782Z,90.7
2022-08-20T13:18:00.573Z,90.7
2022-08-20T13:19:00.727Z,90.6
2022-08-20T13:20:00.892Z,90.7
2022-08-20T13:21:01.026Z,90.9
2022-08-20T13:22:01.193Z,91
2022-08-20T13:23:00.330Z,91
2022-08-20T13:24:00.484Z,91
2022-08-20T13:25:00.650Z,91
2022-08-20T13:26:00.820Z,90.9